createdAt,value
2019-06-27T00:01:43.934Z,18.27
2019-06-27T00:04:12.320Z,17.97
2019-06-27T00:06:40.685Z,20.70
2019-06-27T00:09:10.640Z,18.77
2019-06-27T00:11:38.979Z,16.97
2019-06-27T00:14:07.351Z,20.10
2019-06-27T00:16:35.688Z,16.50
2019-06-27T00:19:04.251Z,18.83
2019-06-27T00:21:32.590Z,19.13
2019-06-27T00:24:00.903Z,16.43
2019-06-27T00:26:31.658Z,20.97
2019-06-27T00:28:59.977Z,23.60
2019-06-27T00:31:28.386Z,23.07
2019-06-27T00:33:56.762Z,19.20
2019-06-27T00:36:25.092Z,24.00
2019-06-27T00:38:53.406Z,21.43
2019-06-27T00:41:21.795Z,28.33
2019-06-27T00:43:50.295Z,22.43
2019-06-27T00:46:18.804Z,20.17
2019-06-27T00:48:47.143Z,25.70
2019-06-27T00:51:15.614Z,19.03
2019-06-27T00:53:43.938Z,21.40
2019-06-27T00:56:12.308Z,22.30
2019-06-27T00:58:40.798Z,21.10
2019-06-27T01:01:09.394Z,19.10
2019-06-27T01:03:37.909Z,21.00
2019-06-27T01:06:06.291Z,20.47
2019-06-27T01:08:34.719Z,23.03
2019-06-27T01:11:03.118Z,21.23
2019-06-27T01:13:31.462Z,18.20
2019-06-27T01:15:59.858Z,20.03
2019-06-27T01:18:28.302Z,28.53
2019-06-27T01:20:58.146Z,22.20
2019-06-27T01:23:26.560Z,22.90
2019-06-27T01:25:55.132Z,19.83
2019-06-27T01:28:23.536Z,21.03
2019-06-27T01:30:51.909Z,22.73
2019-06-27T01:33:20.259Z,18.97
2019-06-27T01:35:48.558Z,21.80
2019-06-27T01:38:16.961Z,21.07
2019-06-27T01:40:45.303Z,21.43
2019-06-27T01:43:13.795Z,17.50
2019-06-27T01:45:52.612Z,22.80
2019-06-27T01:48:21.112Z,21.33
2019-06-27T01:50:49.495Z,17.60
2019-06-27T01:53:17.911Z,22.97
2019-06-27T01:55:46.597Z,22.30
2019-06-27T01:58:15.039Z,21.30
2019-06-27T02:00:43.409Z,19.77
2019-06-27T02:03:12.552Z,19.03
2019-06-27T02:05:41.122Z,23.53
2019-06-27T02:08:09.430Z,23.97
2019-06-27T02:10:37.837Z,19.57
2019-06-27T02:13:06.148Z,20.33
2019-06-27T02:15:34.481Z,24.57
2019-06-27T02:18:02.944Z,22.17
2019-06-27T02:20:31.407Z,26.00
2019-06-27T02:22:59.781Z,24.63
2019-06-27T02:25:28.208Z,22.47
2019-06-27T02:28:03.685Z,24.83
2019-06-27T02:30:38.810Z,19.50
2019-06-27T02:33:07.112Z,29.97
2019-06-27T02:35:35.517Z,23.80
2019-06-27T02:38:03.890Z,26.07
2019-06-27T02:40:32.392Z,23.87
2019-06-27T02:43:00.783Z,21.50
2019-06-27T02:45:29.265Z,21.97
2019-06-27T02:47:57.580Z,20.63
2019-06-27T02:50:25.975Z,25.40
2019-06-27T02:52:54.528Z,23.60
2019-06-27T02:55:22.940Z,24.60
2019-06-27T02:57:51.346Z,22.03
2019-06-27T03:00:20.199Z,19.90
2019-06-27T03:02:48.649Z,24.37
2019-06-27T03:05:17.148Z,21.47
2019-06-27T03:07:45.460Z,23.00
2019-06-27T03:10:14.511Z,17.80
2019-06-27T03:12:42.836Z,20.90
2019-06-27T03:15:11.279Z,20.20
2019-06-27T03:17:39.629Z,18.97
2019-06-27T03:20:09.469Z,18.93
2019-06-27T03:22:37.846Z,20.23
2019-06-27T03:25:06.972Z,25.03
2019-06-27T03:27:35.448Z,21.67
2019-06-27T03:30:05.195Z,22.40
2019-06-27T03:32:33.601Z,20.77
2019-06-27T03:35:03.529Z,18.87
2019-06-27T03:37:31.948Z,21.20
2019-06-27T03:40:00.401Z,23.70
2019-06-27T03:42:29.032Z,23.10
2019-06-27T03:44:57.421Z,22.50
2019-06-27T03:47:26.020Z,22.20
2019-06-27T03:49:55.465Z,29.70
2019-06-27T03:52:23.789Z,24.10
2019-06-27T03:54:52.112Z,22.60
2019-06-27T03:57:20.711Z,27.40
2019-06-27T03:59:49.097Z,22.20
2019-06-27T04:02:17.484Z,22.43
2019-06-27T04:04:45.860Z,26.07
2019-06-27T04:07:14.353Z,28.77
2019-06-27T04:09:42.663Z,27.17
2019-06-27T04:12:10.994Z,22.97
2019-06-27T04:14:39.378Z,23.60
2019-06-27T04:17:07.804Z,29.80
2019-06-27T04:19:36.204Z,29.73
2019-06-27T04:22:06.143Z,24.20
2019-06-27T04:24:34.534Z,29.83
2019-06-27T04:27:02.904Z,22.00
2019-06-27T04:29:33.825Z,21.90
2019-06-27T04:32:01.434Z,33.23
2019-06-27T04:34:29.923Z,27.57
2019-06-27T04:36:58.279Z,29.10
2019-06-27T04:39:26.828Z,31.87
2019-06-27T04:41:55.136Z,25.20
2019-06-27T04:44:23.467Z,28.53
2019-06-27T04:46:51.907Z,31.27
2019-06-27T04:49:20.332Z,29.10
2019-06-27T04:51:48.715Z,24.93
2019-06-27T04:54:17.201Z,34.47
2019-06-27T04:56:45.513Z,27.17
2019-06-27T04:59:13.841Z,28.10
2019-06-27T05:01:42.223Z,25.40
2019-06-27T05:04:10.661Z,26.50
2019-06-27T05:06:39.062Z,24.23
2019-06-27T05:09:07.419Z,28.50
2019-06-27T05:11:35.730Z,27.23
2019-06-27T05:14:04.195Z,28.77
2019-06-27T05:16:32.505Z,31.43
2019-06-27T05:19:00.898Z,28.17
2019-06-27T05:21:29.322Z,31.43
2019-06-27T05:23:57.649Z,32.03
2019-06-27T05:26:25.976Z,30.97
2019-06-27T05:28:54.297Z,35.70
2019-06-27T05:31:22.789Z,28.47
2019-06-27T05:33:51.097Z,27.03
2019-06-27T05:36:19.439Z,29.83
2019-06-27T05:38:47.795Z,25.40
2019-06-27T05:41:16.157Z,26.03
2019-06-27T05:43:44.660Z,30.67
2019-06-27T05:46:13.185Z,25.60
2019-06-27T05:48:41.484Z,23.57
2019-06-27T05:51:09.812Z,39.40
2019-06-27T05:53:38.482Z,28.10
2019-06-27T05:56:06.821Z,26.03
2019-06-27T05:58:35.107Z,27.40
2019-06-27T06:01:03.765Z,27.10
2019-06-27T06:03:32.059Z,26.17
2019-06-27T06:06:00.399Z,23.40
2019-06-27T06:08:28.709Z,22.50
2019-06-27T06:10:57.353Z,26.03
2019-06-27T06:13:25.716Z,31.23
2019-06-27T06:15:54.194Z,21.47
2019-06-27T06:18:22.490Z,26.27
2019-06-27T06:20:50.841Z,22.63
2019-06-27T06:23:19.195Z,24.90
2019-06-27T06:25:47.549Z,27.60
2019-06-27T06:28:16.012Z,20.97
2019-06-27T06:30:45.314Z,20.50
2019-06-27T06:33:13.733Z,24.33
2019-06-27T06:35:42.127Z,23.07
2019-06-27T06:38:10.494Z,27.77
2019-06-27T06:40:38.911Z,23.27
2019-06-27T06:43:07.337Z,22.70
2019-06-27T06:45:36.836Z,24.43
2019-06-27T06:48:05.533Z,21.57
2019-06-27T06:50:33.830Z,20.47
2019-06-27T06:53:02.149Z,23.53
2019-06-27T06:55:30.992Z,21.07
2019-06-27T06:57:59.325Z,26.87
2019-06-27T07:00:27.767Z,21.27
2019-06-27T07:02:56.085Z,24.63
2019-06-27T07:05:24.400Z,22.70
2019-06-27T07:07:52.807Z,25.03
2019-06-27T07:10:21.120Z,24.00
2019-06-27T07:12:49.501Z,21.10
2019-06-27T07:15:17.869Z,25.00
2019-06-27T07:17:46.213Z,22.47
2019-06-27T07:20:14.822Z,28.17
2019-06-27T07:22:43.120Z,20.50
2019-06-27T07:25:11.975Z,23.90
2019-06-27T07:27:40.306Z,24.27
2019-06-27T07:30:09.016Z,26.93
2019-06-27T07:32:37.433Z,24.10
2019-06-27T07:35:06.702Z,24.30
2019-06-27T07:37:35.035Z,21.07
2019-06-27T07:40:05.281Z,30.13
2019-06-27T07:42:33.628Z,25.80
2019-06-27T07:45:02.283Z,22.03
2019-06-27T07:47:30.697Z,24.60
2019-06-27T07:49:59.191Z,24.00
2019-06-27T07:52:27.604Z,23.70
2019-06-27T07:54:55.915Z,21.60
2019-06-27T07:57:24.245Z,23.90
2019-06-27T07:59:52.620Z,23.43
2019-06-27T08:02:20.995Z,25.87
2019-06-27T08:04:49.311Z,22.27
2019-06-27T08:07:21.070Z,23.13
2019-06-27T08:09:47.726Z,21.80
2019-06-27T08:12:16.109Z,22.63
2019-06-27T08:14:44.522Z,22.83
2019-06-27T08:17:12.828Z,20.70
2019-06-27T08:19:41.160Z,22.60
2019-06-27T08:22:09.563Z,21.43
2019-06-27T08:24:37.897Z,22.07
2019-06-27T08:27:06.634Z,25.40
2019-06-27T08:29:34.973Z,23.30
2019-06-27T08:32:03.327Z,21.00
2019-06-27T08:34:31.653Z,22.70
2019-06-27T08:36:59.970Z,21.67
2019-06-27T08:39:28.388Z,22.10
2019-06-27T08:41:56.764Z,21.07
2019-06-27T08:44:25.226Z,22.53
2019-06-27T08:46:53.564Z,23.47
2019-06-27T08:49:21.884Z,23.67
2019-06-27T08:51:50.410Z,22.57
2019-06-27T08:54:18.905Z,21.90
2019-06-27T08:56:47.222Z,20.27
2019-06-27T08:59:15.596Z,22.63
2019-06-27T09:01:43.874Z,23.00
2019-06-27T09:04:12.271Z,24.30
2019-06-27T09:06:40.730Z,21.90
2019-06-27T09:09:09.149Z,22.60
2019-06-27T09:11:38.353Z,22.17
2019-06-27T09:14:06.776Z,23.80
2019-06-27T09:16:35.155Z,21.10
2019-06-27T09:19:03.458Z,27.50
2019-06-27T09:21:31.794Z,22.03
2019-06-27T09:24:00.083Z,25.60
2019-06-27T09:26:28.429Z,22.27
2019-06-27T09:28:56.809Z,22.03
2019-06-27T09:31:25.208Z,23.63
2019-06-27T09:33:53.688Z,22.07
2019-06-27T09:36:22.098Z,21.03
2019-06-27T09:38:50.433Z,23.97
2019-06-27T09:41:18.889Z,23.53
2019-06-27T09:43:47.252Z,22.60
2019-06-27T09:46:15.631Z,20.43
2019-06-27T09:48:44.097Z,22.40
2019-06-27T09:51:12.438Z,22.43
2019-06-27T09:53:40.761Z,23.27
2019-06-27T09:56:09.245Z,23.57
2019-06-27T09:58:37.633Z,24.43
2019-06-27T10:01:06.386Z,23.50
2019-06-27T10:03:34.984Z,20.90
2019-06-27T10:06:03.480Z,20.77
2019-06-27T10:08:32.037Z,23.07
2019-06-27T10:11:00.387Z,25.67
2019-06-27T10:13:28.847Z,21.83
2019-06-27T10:15:59.105Z,20.70
2019-06-27T10:18:28.647Z,22.03
2019-06-27T10:20:57.003Z,21.70
2019-06-27T10:23:25.671Z,22.63
2019-06-27T10:25:54.018Z,22.83
2019-06-27T10:28:22.441Z,21.93
2019-06-27T10:30:50.798Z,21.87
2019-06-27T10:33:19.175Z,21.90
2019-06-27T10:35:47.444Z,25.33
2019-06-27T10:38:15.936Z,21.67
2019-06-27T10:40:44.245Z,21.80
2019-06-27T10:43:12.779Z,20.10
2019-06-27T10:45:41.165Z,19.83
2019-06-27T10:48:09.540Z,22.63
2019-06-27T10:50:37.901Z,22.10
2019-06-27T10:53:06.301Z,21.07
2019-06-27T10:55:34.617Z,23.00
2019-06-27T10:58:03.017Z,19.87
2019-06-27T11:00:31.385Z,19.33
2019-06-27T11:03:14.470Z,19.80
2019-06-27T11:05:29.891Z,19.13
2019-06-27T11:07:58.218Z,21.07
2019-06-27T11:10:26.515Z,19.33
2019-06-27T11:12:54.975Z,24.70
2019-06-27T11:15:23.343Z,21.30
2019-06-27T11:17:51.718Z,19.17
2019-06-27T11:20:20.130Z,18.20
2019-06-27T11:22:48.452Z,18.57
2019-06-27T11:25:16.765Z,18.10
2019-06-27T11:27:45.056Z,19.40
2019-06-27T11:30:15.133Z,19.03
2019-06-27T11:32:43.422Z,20.50
2019-06-27T11:35:12.037Z,18.47
2019-06-27T11:37:40.472Z,19.33
2019-06-27T11:40:12.290Z,17.13
2019-06-27T11:42:39.695Z,19.90
2019-06-27T11:45:08.193Z,19.07
2019-06-27T11:47:36.645Z,19.73
2019-06-27T11:50:05.859Z,17.40
2019-06-27T11:52:34.209Z,18.57
2019-06-27T11:55:02.603Z,19.60
2019-06-27T11:57:30.987Z,18.57
2019-06-27T11:59:59.493Z,20.23
2019-06-27T12:02:27.859Z,16.90
2019-06-27T12:04:56.215Z,15.33
2019-06-27T12:07:24.520Z,21.10
2019-06-27T12:09:52.924Z,18.33
2019-06-27T12:12:21.235Z,16.40
2019-06-27T12:14:49.759Z,18.10
2019-06-27T12:17:18.051Z,17.43
2019-06-27T12:19:46.397Z,15.27
2019-06-27T12:22:14.805Z,19.67
2019-06-27T12:24:43.294Z,15.30
2019-06-27T12:27:11.611Z,18.03
2019-06-27T12:29:40.139Z,16.37
2019-06-27T12:32:08.435Z,14.10
2019-06-27T12:34:36.750Z,15.67
2019-06-27T12:37:05.240Z,13.03
2019-06-27T12:39:33.592Z,14.10
2019-06-27T12:42:02.079Z,14.80
2019-06-27T12:44:30.574Z,14.47
2019-06-27T12:46:59.008Z,14.70
2019-06-27T12:49:44.818Z,12.67
2019-06-27T12:51:57.485Z,12.80
2019-06-27T12:54:25.831Z,11.03
2019-06-27T12:56:54.603Z,11.83
2019-06-27T12:59:22.912Z,16.50
2019-06-27T13:01:51.263Z,11.63
2019-06-27T13:04:24.001Z,12.10
2019-06-27T13:06:49.626Z,13.10
2019-06-27T13:09:17.928Z,15.23
2019-06-27T13:11:46.346Z,14.67
2019-06-27T13:14:14.831Z,15.77
2019-06-27T13:16:43.273Z,17.93
2019-06-27T13:19:11.653Z,13.47
2019-06-27T13:21:40.275Z,12.70
2019-06-27T13:24:08.730Z,13.30
2019-06-27T13:26:37.110Z,12.60
2019-06-27T13:29:05.410Z,11.83
2019-06-27T13:31:33.853Z,15.53
2019-06-27T13:34:02.353Z,12.30
2019-06-27T13:36:33.246Z,19.03
2019-06-27T13:39:01.097Z,11.43
2019-06-27T13:41:29.390Z,13.70
2019-06-27T13:44:00.545Z,13.30
2019-06-27T13:46:28.926Z,11.77
2019-06-27T13:48:57.347Z,11.53
2019-06-27T13:51:25.654Z,11.53
2019-06-27T13:53:54.012Z,18.03
2019-06-27T13:56:22.384Z,12.53
2019-06-27T13:58:50.736Z,10.40
2019-06-27T14:01:19.054Z,10.60
2019-06-27T14:03:49.758Z,9.57
2019-06-27T14:06:17.621Z,10.27
2019-06-27T14:08:46.073Z,15.30
2019-06-27T14:11:14.446Z,10.60
2019-06-27T14:13:42.761Z,11.00
2019-06-27T14:16:11.223Z,11.67
2019-06-27T14:18:39.615Z,11.93
2019-06-27T14:21:07.990Z,11.00
2019-06-27T14:23:36.356Z,12.97
2019-06-27T14:26:04.922Z,11.00
2019-06-27T14:28:33.231Z,11.30
2019-06-27T14:31:01.541Z,12.07
2019-06-27T14:33:29.961Z,12.40
2019-06-27T14:35:58.331Z,12.70
2019-06-27T14:38:26.884Z,12.93
2019-06-27T14:40:55.282Z,15.60
2019-06-27T14:43:23.550Z,12.80
2019-06-27T14:45:51.993Z,13.67
2019-06-27T14:48:20.307Z,14.47
2019-06-27T14:50:48.715Z,13.97
2019-06-27T14:53:17.195Z,25.33
2019-06-27T14:55:45.559Z,14.50
2019-06-27T14:58:13.987Z,16.77
2019-06-27T15:00:42.406Z,15.13
2019-06-27T15:03:11.090Z,15.60
2019-06-27T15:05:39.452Z,16.23
2019-06-27T15:08:07.899Z,15.40
2019-06-27T15:10:36.284Z,15.83
2019-06-27T15:13:04.583Z,16.57
2019-06-27T15:15:32.938Z,16.00
2019-06-27T15:18:01.270Z,16.70
2019-06-27T15:20:29.676Z,25.23
2019-06-27T15:22:58.086Z,16.90
2019-06-27T15:25:28.446Z,18.80
2019-06-27T15:27:56.700Z,17.47
2019-06-27T15:30:25.191Z,18.83
2019-06-27T15:32:53.484Z,17.33
2019-06-27T15:35:22.053Z,16.80
2019-06-27T15:37:50.365Z,16.63
2019-06-27T15:40:19.317Z,17.17
2019-06-27T15:42:47.707Z,16.87
2019-06-27T15:45:16.110Z,17.90
2019-06-27T15:47:44.536Z,17.83
2019-06-27T15:50:13.022Z,16.17
2019-06-27T15:52:41.454Z,15.90
2019-06-27T15:55:12.204Z,16.03
2019-06-27T15:57:40.904Z,16.33
2019-06-27T16:00:09.357Z,16.80
2019-06-27T16:02:38.508Z,15.07
2019-06-27T16:05:07.311Z,15.60
2019-06-27T16:07:35.820Z,16.07
2019-06-27T16:10:08.136Z,16.10
2019-06-27T16:12:36.892Z,15.10
2019-06-27T16:15:08.362Z,15.70
2019-06-27T16:17:36.746Z,15.90
2019-06-27T16:20:06.814Z,15.10
2019-06-27T16:22:36.905Z,15.20
2019-06-27T16:25:07.051Z,14.00
2019-06-27T16:27:35.475Z,15.37
2019-06-27T16:30:05.352Z,14.10
2019-06-27T16:32:33.715Z,13.43
2019-06-27T16:35:02.102Z,13.77
2019-06-27T16:37:30.735Z,13.23
2019-06-27T16:39:59.127Z,13.67
2019-06-27T16:42:27.611Z,15.33
2019-06-27T16:44:56.038Z,21.20
2019-06-27T16:47:24.470Z,14.13
2019-06-27T16:49:52.970Z,13.30
2019-06-27T16:52:21.401Z,12.90
2019-06-27T16:54:49.782Z,12.77
2019-06-27T16:57:18.161Z,14.37
2019-06-27T16:59:46.495Z,12.43
2019-06-27T17:02:14.874Z,12.27
2019-06-27T17:04:43.416Z,11.20
2019-06-27T17:07:11.731Z,12.83
2019-06-27T17:09:41.323Z,12.73
2019-06-27T17:12:09.612Z,10.63
2019-06-27T17:14:38.017Z,11.43
2019-06-27T17:17:06.379Z,10.63
2019-06-27T17:19:34.813Z,10.57
2019-06-27T17:22:03.154Z,10.67
2019-06-27T17:24:31.457Z,10.60
2019-06-27T17:26:59.788Z,12.57
2019-06-27T17:29:28.242Z,9.27
2019-06-27T17:31:56.564Z,9.40
2019-06-27T17:34:24.888Z,7.70
2019-06-27T17:36:57.923Z,11.83
2019-06-27T17:39:23.487Z,7.80
2019-06-27T17:41:51.781Z,8.77
2019-06-27T17:44:20.251Z,7.70
2019-06-27T17:46:48.906Z,6.93
2019-06-27T17:49:17.317Z,10.47
2019-06-27T17:51:45.694Z,9.13
2019-06-27T17:54:14.023Z,6.10
2019-06-27T17:56:42.344Z,7.57
2019-06-27T17:59:10.728Z,6.73
2019-06-27T18:01:39.840Z,8.20
2019-06-27T18:04:08.167Z,5.77
2019-06-27T18:06:36.544Z,7.10
2019-06-27T18:09:05.107Z,7.43
2019-06-27T18:11:33.495Z,11.33
2019-06-27T18:14:01.901Z,9.80
2019-06-27T18:16:30.306Z,6.27
2019-06-27T18:19:00.691Z,6.10
2019-06-27T18:21:28.701Z,7.27
2019-06-27T18:23:57.249Z,5.23
2019-06-27T18:26:25.641Z,7.73
2019-06-27T18:28:54.057Z,5.50
2019-06-27T18:31:22.459Z,11.33
2019-06-27T18:33:50.986Z,5.83
2019-06-27T18:36:19.324Z,4.70
2019-06-27T18:38:47.756Z,8.90
2019-06-27T18:41:16.253Z,4.77
2019-06-27T18:43:44.728Z,3.63
2019-06-27T18:46:13.216Z,3.20
2019-06-27T18:48:41.484Z,4.50
2019-06-27T18:51:09.894Z,3.57
2019-06-27T18:53:38.342Z,4.40
2019-06-27T18:56:06.699Z,4.00
2019-06-27T18:58:35.166Z,3.83
2019-06-27T19:01:03.657Z,5.10
2019-06-27T19:03:32.048Z,4.33
2019-06-27T19:06:00.484Z,4.27
2019-06-27T19:08:28.856Z,4.13
2019-06-27T19:10:57.216Z,4.90
2019-06-27T19:13:27.261Z,4.30
2019-06-27T19:15:57.242Z,4.70
2019-06-27T19:18:48.248Z,4.77
2019-06-27T19:21:26.261Z,6.27
2019-06-27T19:23:56.276Z,5.00
2019-06-27T19:26:24.577Z,5.03
2019-06-27T19:28:53.139Z,5.93
2019-06-27T19:31:21.703Z,5.57
2019-06-27T19:33:50.249Z,4.73
2019-06-27T19:36:20.274Z,11.43
2019-06-27T19:38:50.821Z,3.60
2019-06-27T19:41:19.280Z,4.33
2019-06-27T19:43:49.436Z,3.70
2019-06-27T19:46:19.921Z,5.60
2019-06-27T19:48:48.600Z,4.63
2019-06-27T19:51:17.106Z,5.80
2019-06-27T19:53:45.517Z,4.80
2019-06-27T19:56:13.823Z,3.80
2019-06-27T19:58:42.441Z,10.13
2019-06-27T20:01:10.886Z,5.03
2019-06-27T20:03:39.289Z,5.20
2019-06-27T20:06:07.664Z,5.00
2019-06-27T20:08:36.090Z,4.57
2019-06-27T20:11:04.725Z,5.73
2019-06-27T20:13:33.122Z,3.50
2019-06-27T20:16:01.599Z,3.20
2019-06-27T20:18:29.926Z,3.00
2019-06-27T20:20:58.290Z,4.27
2019-06-27T20:23:26.611Z,3.30
2019-06-27T20:25:55.026Z,4.43
2019-06-27T20:28:23.316Z,3.53
2019-06-27T20:30:51.668Z,5.00
2019-06-27T20:33:21.431Z,3.37
2019-06-27T20:35:49.791Z,3.20
2019-06-27T20:38:30.777Z,3.37
2019-06-27T20:40:48.452Z,3.43
2019-06-27T20:43:16.820Z,4.30
2019-06-27T20:45:45.350Z,8.47
2019-06-27T20:48:13.710Z,5.80
2019-06-27T20:50:42.044Z,3.67
2019-06-27T20:53:10.531Z,3.10
2019-06-27T20:55:38.930Z,2.67
2019-06-27T20:58:07.385Z,2.57
2019-06-27T21:00:35.925Z,2.67
2019-06-27T21:03:04.585Z,4.40
2019-06-27T21:05:33.060Z,2.70
2019-06-27T21:08:01.457Z,4.53
2019-06-27T21:10:30.026Z,3.50
2019-06-27T21:12:58.309Z,6.87
2019-06-27T21:15:26.642Z,3.43
2019-06-27T21:17:55.085Z,5.03
2019-06-27T21:20:24.051Z,3.63
2019-06-27T21:22:52.531Z,2.70
2019-06-27T21:25:21.020Z,3.20
2019-06-27T21:27:49.457Z,5.17
2019-06-27T21:30:18.028Z,4.40
2019-06-27T21:32:48.430Z,3.50
2019-06-27T21:35:16.530Z,2.37
2019-06-27T21:37:44.840Z,3.10
2019-06-27T21:40:13.606Z,2.13
2019-06-27T21:42:42.063Z,3.70
2019-06-27T21:45:11.263Z,4.43
2019-06-27T21:47:39.719Z,2.83
2019-06-27T21:50:08.251Z,5.20
2019-06-27T21:52:36.980Z,4.87
2019-06-27T21:55:06.345Z,4.43
2019-06-27T21:57:34.746Z,3.50
2019-06-27T22:00:04.282Z,5.47
2019-06-27T22:02:32.654Z,7.27
2019-06-27T22:05:01.029Z,2.70
2019-06-27T22:07:29.602Z,6.13
2019-06-27T22:09:58.041Z,4.17
2019-06-27T22:12:26.417Z,5.20
2019-06-27T22:14:54.730Z,3.47
2019-06-27T22:17:23.043Z,5.07
2019-06-27T22:19:51.415Z,3.87
2019-06-27T22:22:19.731Z,5.33
2019-06-27T22:24:48.022Z,4.73
2019-06-27T22:27:16.409Z,9.53
2019-06-27T22:29:44.775Z,5.47
2019-06-27T22:32:13.234Z,3.07
2019-06-27T22:34:43.451Z,3.20
2019-06-27T22:37:12.095Z,3.57
2019-06-27T22:39:58.682Z,10.03
2019-06-27T22:42:44.978Z,4.50
2019-06-27T22:45:31.632Z,3.67
2019-06-27T22:48:13.976Z,4.23
2019-06-27T22:50:50.671Z,6.53
2019-06-27T22:53:25.138Z,4.87
2019-06-27T22:55:54.674Z,4.30
2019-06-27T22:58:23.124Z,5.27
2019-06-27T23:00:51.715Z,4.20
2019-06-27T23:03:20.165Z,6.10
2019-06-27T23:05:48.547Z,5.67
2019-06-27T23:08:16.884Z,7.67
2019-06-27T23:10:45.230Z,5.90
2019-06-27T23:13:13.611Z,4.93
2019-06-27T23:15:42.450Z,11.20
2019-06-27T23:18:10.823Z,4.67
2019-06-27T23:20:39.208Z,3.70
2019-06-27T23:23:07.526Z,8.83
2019-06-27T23:25:35.840Z,7.40
2019-06-27T23:28:04.152Z,7.80
2019-06-27T23:30:34.087Z,10.87
2019-06-27T23:33:02.395Z,5.60
2019-06-27T23:35:30.771Z,8.57
2019-06-27T23:37:59.146Z,6.97
2019-06-27T23:40:27.536Z,7.63
2019-06-27T23:42:55.860Z,6.60
2019-06-27T23:45:24.270Z,6.90
2019-06-27T23:47:52.625Z,4.87
2019-06-27T23:50:20.965Z,6.10
2019-06-27T23:52:49.268Z,8.30
2019-06-27T23:55:17.652Z,4.83
2019-06-27T23:57:46.031Z,4.17
